Time;durP1;ratioP1;P1;durP2;ratioP2;P2;SDS_P1;SDS_P2;PMS_P1;PMS_P2;Temp;Humidity;BMP_temperature;BMP_pressure;BME280_temperature;BME280_humidity;BME280_pressure;Samples;Min_cycle;Max_cycle;Signal;HPM_P1;HPM_P2
2023/07/01 00:01:30;;;;;;;6.95;4.57;;;16.80;99.90;;;;;;5092894;28;20093;-72
2023/07/01 00:03:56;;;;;;;6.47;4.45;;;16.80;1.00;;;;;;5093227;28;20481;-72
2023/07/01 00:06:21;;;;;;;8.60;4.93;;;16.90;99.90;;;;;;5092904;28;20027;-72
2023/07/01 00:08:48;;;;;;;6.32;4.47;;;16.90;1.00;;;;;;5092959;28;20077;-74
2023/07/01 00:11:13;;;;;;;6.97;4.35;;;16.90;99.90;;;;;;5093026;28;20028;-72
2023/07/01 00:13:39;;;;;;;6.88;4.30;;;17.00;1.00;;;;;;5093003;28;20032;-72
2023/07/01 00:16:04;;;;;;;7.15;4.25;;;17.00;1.00;;;;;;5093191;28;20367;-72
2023/07/01 00:18:30;;;;;;;5.45;4.25;;;17.10;1.00;;;;;;5096614;28;20028;-72
2023/07/01 00:20:56;;;;;;;7.38;4.57;;;17.10;99.90;;;;;;5096795;28;20024;-72
2023/07/01 00:23:22;;;;;;;7.15;4.63;;;17.10;20.20;;;;;;5096352;28;20024;-73
2023/07/01 00:25:47;;;;;;;6.03;4.60;;;17.10;1.00;;;;;;5096299;28;20046;-73
2023/07/01 00:28:13;;;;;;;8.23;4.68;;;17.10;74.90;;;;;;5096688;28;20028;-72
2023/07/01 00:30:38;;;;;;;7.38;4.28;;;17.10;20.50;;;;;;5096031;28;20035;-73
2023/07/01 00:33:05;;;;;;;6.45;4.05;;;17.10;1.00;;;;;;5096271;28;20024;-72
2023/07/01 00:35:31;;;;;;;6.80;4.38;;;17.10;27.10;;;;;;5096845;28;20016;-72
2023/07/01 00:37:57;;;;;;;8.30;4.45;;;17.10;46.10;;;;;;5096243;28;20024;-73
2023/07/01 00:40:22;;;;;;;5.78;4.10;;;17.10;99.90;;;;;;5096484;28;20032;-72
2023/07/01 00:42:48;;;;;;;6.32;4.10;;;17.10;1.00;;;;;;5095926;28;20024;-73
2023/07/01 00:45:14;;;;;;;8.40;3.88;;;17.10;1.00;;;;;;5096362;28;20042;-72
2023/07/01 00:47:40;;;;;;;10.13;4.40;;;17.20;1.00;;;;;;5096091;28;20036;-71
2023/07/01 00:50:10;;;;;;;8.10;4.18;;;17.10;1.00;;;;;;5095943;28;20473;-74
2023/07/01 00:52:37;;;;;;;7.70;4.38;;;17.10;1.00;;;;;;5096241;28;20016;-73
2023/07/01 00:55:03;;;;;;;10.50;4.10;;;17.10;1.00;;;;;;5096368;28;20431;-72
2023/07/01 00:57:29;;;;;;;8.55;4.05;;;17.10;1.00;;;;;;5096363;28;20026;-72
2023/07/01 00:59:55;;;;;;;8.18;4.63;;;17.10;1.00;;;;;;5095995;28;20065;-73
2023/07/01 01:02:24;;;;;;;7.22;4.32;;;17.10;1.00;;;;;;5096359;28;20039;-73
2023/07/01 01:05:02;;;;;;;6.82;4.10;;;17.10;1.00;;;;;;5095664;28;20028;-72
2023/07/01 01:07:33;;;;;;;7.20;4.30;;;17.10;1.00;;;;;;5095828;28;20082;-72
2023/07/01 01:10:08;;;;;;;7.30;4.30;;;17.10;99.90;;;;;;5095553;28;20393;-73
2023/07/01 01:12:34;;;;;;;7.25;4.07;;;17.10;99.90;;;;;;5095390;28;20048;-72
2023/07/01 01:15:02;;;;;;;7.13;4.00;;;17.10;99.90;;;;;;5095839;28;20024;-73
2023/07/01 01:17:31;;;;;;;7.82;4.07;;;17.20;99.90;;;;;;5095613;28;20092;-73
2023/07/01 01:20:12;;;;;;;5.90;4.07;;;17.20;99.90;;;;;;5095606;28;20040;-72
2023/07/01 01:22:57;;;;;;;5.00;3.80;;;17.20;20.30;;;;;;5095271;28;20086;-72
2023/07/01 01:25:29;;;;;;;6.78;3.67;;;17.30;20.70;;;;;;5095170;28;20125;-73
2023/07/01 01:27:57;;;;;;;10.15;3.70;;;17.30;1.00;;;;;;5095573;28;20438;-73
2023/07/01 01:30:23;;;;;;;5.95;3.63;;;17.30;1.00;;;;;;5094943;28;20058;-73
2023/07/01 01:32:49;;;;;;;5.93;3.83;;;17.30;1.00;;;;;;5095358;28;20016;-72
2023/07/01 01:35:14;;;;;;;6.10;3.50;;;17.30;99.90;;;;;;5095355;28;20077;-72
2023/07/01 01:37:49;;;;;;;5.03;3.58;;;17.30;1.00;;;;;;5095258;28;20478;-72
2023/07/01 01:40:20;;;;;;;7.47;3.40;;;17.30;1.00;;;;;;5095423;28;20036;-73
2023/07/01 01:42:47;;;;;;;4.60;3.53;;;17.30;99.90;;;;;;5095236;28;20032;-73
2023/07/01 01:45:15;;;;;;;6.95;3.60;;;17.30;99.90;;;;;;5094950;28;20500;-72
2023/07/01 01:47:41;;;;;;;6.85;3.58;;;17.30;99.90;;;;;;5095078;28;20481;-72
2023/07/01 01:50:09;;;;;;;4.93;3.45;;;17.30;99.90;;;;;;5094474;28;20181;-72
2023/07/01 01:52:37;;;;;;;5.93;3.40;;;17.30;99.90;;;;;;5095085;28;20031;-72
2023/07/01 01:55:05;;;;;;;7.15;3.72;;;17.40;99.90;;;;;;5094962;28;20020;-72
2023/07/01 01:57:31;;;;;;;6.32;3.40;;;17.30;99.90;;;;;;5094908;28;20130;-74
2023/07/01 01:59:57;;;;;;;7.68;3.13;;;17.30;99.90;;;;;;5094785;28;20509;-72
2023/07/01 02:02:22;;;;;;;6.32;3.40;;;17.30;99.90;;;;;;5094797;28;20039;-73
2023/07/01 02:04:48;;;;;;;4.07;3.13;;;17.40;99.90;;;;;;5094939;28;20094;-74
2023/07/01 02:07:13;;;;;;;5.60;3.20;;;17.40;99.90;;;;;;5094462;28;20558;-71
2023/07/01 02:09:39;;;;;;;4.45;3.72;;;17.40;99.90;;;;;;5094318;28;20398;-74
2023/07/01 02:12:05;;;;;;;6.93;3.30;;;17.30;99.90;;;;;;5094712;28;20114;-71
2023/07/01 02:14:31;;;;;;;5.38;3.20;;;17.40;99.90;;;;;;5094506;28;20028;-73
2023/07/01 02:16:57;;;;;;;6.45;3.28;;;17.40;99.90;;;;;;5094608;28;20028;-74
2023/07/01 02:19:23;;;;;;;3.97;3.20;;;17.40;99.90;;;;;;5093989;28;20508;-73
2023/07/01 02:21:48;;;;;;;6.82;3.08;;;17.40;99.90;;;;;;5094167;28;20047;-72
2023/07/01 02:24:14;;;;;;;6.60;3.22;;;17.30;99.90;;;;;;5094429;28;20028;-74
2023/07/01 02:26:39;;;;;;;5.00;3.30;;;17.30;99.90;;;;;;5094390;28;20071;-72
2023/07/01 02:29:05;;;;;;;4.93;3.45;;;17.30;99.90;;;;;;5094574;28;20053;-72
2023/07/01 02:31:30;;;;;;;5.13;3.20;;;17.30;99.90;;;;;;5094289;28;20027;-72
2023/07/01 02:34:00;;;;;;;4.45;3.15;;;17.40;99.90;;;;;;5094279;28;20020;-72
2023/07/01 02:36:26;;;;;;;7.53;3.60;;;17.30;99.90;;;;;;5094158;28;20032;-72
2023/07/01 02:38:52;;;;;;;7.63;3.47;;;17.30;99.90;;;;;;5093602;28;20434;-72
2023/07/01 02:41:17;;;;;;;6.93;3.40;;;17.30;99.90;;;;;;5093799;28;20028;-73
2023/07/01 02:43:43;;;;;;;5.60;3.50;;;17.30;99.90;;;;;;5094128;28;20016;-74
2023/07/01 02:46:08;;;;;;;7.22;3.20;;;17.30;99.90;;;;;;5094112;28;20020;-73
2023/07/01 02:48:34;;;;;;;5.78;3.17;;;17.30;99.90;;;;;;5094058;28;20024;-73
2023/07/01 02:50:59;;;;;;;5.40;3.35;;;17.30;99.90;;;;;;5093866;28;20473;-74
2023/07/01 02:53:25;;;;;;;4.40;3.72;;;17.30;99.90;;;;;;5094062;28;20020;-72
2023/07/01 02:55:50;;;;;;;4.93;3.83;;;17.30;99.90;;;;;;5094048;28;20035;-74
2023/07/01 02:58:16;;;;;;;5.35;3.53;;;17.40;1.00;;;;;;5093829;28;20390;-73
2023/07/01 03:00:41;;;;;;;5.22;3.53;;;17.40;99.90;;;;;;5093785;28;20035;-73
2023/07/01 03:03:07;;;;;;;9.65;3.63;;;17.50;99.90;;;;;;5093757;28;20412;-74
2023/07/01 03:05:36;;;;;;;4.68;3.42;;;17.50;99.90;;;;;;5093998;28;20024;-74
2023/07/01 03:08:03;;;;;;;7.15;3.42;;;17.50;99.90;;;;;;5093502;28;20421;-73
2023/07/01 03:10:28;;;;;;;4.25;3.50;;;17.60;99.90;;;;;;5093343;28;20501;-74
2023/07/01 03:12:55;;;;;;;4.10;3.53;;;17.60;99.90;;;;;;5093308;28;20110;-74
2023/07/01 03:15:20;;;;;;;7.13;3.53;;;17.60;99.90;;;;;;5093828;28;20054;-74
2023/07/01 03:17:47;;;;;;;6.95;3.17;;;17.70;99.90;;;;;;5093927;28;20060;-73
2023/07/01 03:20:22;;;;;;;5.13;3.40;;;17.70;99.90;;;;;;5093801;28;20035;-73
2023/07/01 03:22:50;;;;;;;5.32;3.65;;;17.70;99.90;;;;;;5093758;28;20020;-74
2023/07/01 03:25:15;;;;;;;5.80;2.78;;;17.70;99.90;;;;;;5093805;28;20123;-73
2023/07/01 03:27:42;;;;;;;4.80;2.92;;;17.80;35.60;;;;;;5093193;28;20120;-73
2023/07/01 03:30:13;;;;;;;6.03;3.15;;;17.80;10.10;;;;;;5093230;28;20036;-74
2023/07/01 03:32:39;;;;;;;5.57;2.80;;;17.90;1.00;;;;;;5093068;28;20101;-73
2023/07/01 03:35:05;;;;;;;6.10;3.25;;;17.90;1.00;;;;;;5093772;28;20070;-73
2023/07/01 03:37:31;;;;;;;6.68;2.90;;;17.90;99.90;;;;;;5093572;28;20482;-73
2023/07/01 03:39:56;;;;;;;4.35;2.60;;;17.90;1.00;;;;;;5093557;28;20028;-74
2023/07/01 03:42:22;;;;;;;6.43;3.03;;;17.90;99.90;;;;;;5093036;28;20054;-72
2023/07/01 03:44:47;;;;;;;5.70;2.85;;;18.00;99.90;;;;;;5093478;28;20032;-74
2023/07/01 03:47:13;;;;;;;6.63;2.70;;;18.00;99.90;;;;;;5093615;28;20028;-74
2023/07/01 03:49:39;;;;;;;4.30;2.80;;;18.00;99.90;;;;;;5093329;28;20432;-73
2023/07/01 03:52:05;;;;;;;5.55;3.15;;;18.00;99.90;;;;;;5094614;28;20039;-73
2023/07/01 03:54:30;;;;;;;4.57;2.88;;;18.00;99.90;;;;;;5097216;28;20066;-74
2023/07/01 03:56:56;;;;;;;7.40;2.67;;;18.00;99.90;;;;;;5097573;28;20066;-74
2023/07/01 03:59:21;;;;;;;5.10;2.63;;;18.00;99.90;;;;;;5097185;28;20020;-74
2023/07/01 04:01:47;;;;;;;4.90;2.70;;;18.00;99.90;;;;;;5097021;28;20036;-74
2023/07/01 04:04:12;;;;;;;4.18;2.92;;;18.00;99.90;;;;;;5097081;28;20024;-73
2023/07/01 04:06:39;;;;;;;7.82;2.97;;;18.10;99.90;;;;;;5097127;28;20028;-74
2023/07/01 04:09:04;;;;;;;7.85;2.75;;;18.00;99.90;;;;;;5096797;28;20024;-73
2023/07/01 04:11:31;;;;;;;4.85;2.47;;;18.10;99.90;;;;;;5097065;28;20016;-74
2023/07/01 04:13:57;;;;;;;5.68;3.08;;;18.10;99.90;;;;;;5097246;28;20538;-73
2023/07/01 04:16:23;;;;;;;5.43;2.70;;;18.10;99.90;;;;;;5096712;28;20038;-73
2023/07/01 04:18:49;;;;;;;5.22;2.67;;;18.10;99.90;;;;;;5097127;28;20039;-74
2023/07/01 04:21:14;;;;;;;4.82;2.67;;;18.10;99.90;;;;;;5097091;28;20032;-73
2023/07/01 04:23:40;;;;;;;4.47;2.70;;;18.10;99.90;;;;;;5096863;28;20024;-73
2023/07/01 04:26:06;;;;;;;5.35;2.40;;;18.20;99.90;;;;;;5096974;28;20034;-73
2023/07/01 04:28:32;;;;;;;5.90;2.65;;;18.20;99.90;;;;;;5096729;28;20054;-73
2023/07/01 04:30:57;;;;;;;6.47;2.42;;;18.20;99.90;;;;;;5096501;28;20032;-73
2023/07/01 04:33:23;;;;;;;5.22;2.97;;;18.20;99.90;;;;;;5096147;28;20031;-73
2023/07/01 04:35:49;;;;;;;2.63;2.30;;;18.20;99.90;;;;;;5096975;28;20062;-73
2023/07/01 04:38:14;;;;;;;7.13;2.92;;;18.20;99.90;;;;;;5096650;28;20052;-73
2023/07/01 04:40:40;;;;;;;5.07;2.45;;;18.20;99.90;;;;;;5096453;28;20099;-74
2023/07/01 04:43:05;;;;;;;4.53;2.40;;;18.20;99.90;;;;;;5096571;28;20034;-73
2023/07/01 04:45:33;;;;;;;5.00;2.65;;;18.20;99.90;;;;;;5095962;28;20111;-73
2023/07/01 04:47:59;;;;;;;4.70;2.60;;;18.20;99.90;;;;;;5096296;28;20032;-73
2023/07/01 04:50:25;;;;;;;5.32;2.70;;;18.30;99.90;;;;;;5096053;28;20115;-73
2023/07/01 04:52:50;;;;;;;4.43;2.78;;;18.30;99.90;;;;;;5096222;28;20158;-74
2023/07/01 04:55:18;;;;;;;7.38;2.88;;;18.20;99.90;;;;;;5095889;28;20106;-73
2023/07/01 04:57:44;;;;;;;8.15;2.80;;;18.30;99.90;;;;;;5096115;28;20043;-73
2023/07/01 05:00:10;;;;;;;4.82;2.50;;;18.30;99.90;;;;;;5095814;28;20024;-73
2023/07/01 05:02:37;;;;;;;6.32;2.72;;;18.30;99.90;;;;;;5095721;28;20035;-73
2023/07/01 05:05:03;;;;;;;6.93;2.78;;;18.40;99.90;;;;;;5096402;28;20031;-73
2023/07/01 05:07:28;;;;;;;6.10;2.47;;;18.40;99.90;;;;;;5096059;28;20059;-74
2023/07/01 05:09:54;;;;;;;7.30;2.78;;;18.40;99.90;;;;;;5095686;28;20079;-73
2023/07/01 05:12:20;;;;;;;5.32;2.47;;;18.40;99.90;;;;;;5095965;28;20124;-74
2023/07/01 05:14:45;;;;;;;5.30;2.83;;;18.40;99.90;;;;;;5095941;28;20490;-74
2023/07/01 05:17:11;;;;;;;5.90;2.97;;;18.50;99.90;;;;;;5096002;28;20020;-73
2023/07/01 05:19:36;;;;;;;4.97;2.80;;;18.50;99.90;;;;;;5096047;28;20032;-73
2023/07/01 05:22:02;;;;;;;4.07;2.45;;;18.50;99.90;;;;;;5095276;28;20035;-74
2023/07/01 05:24:27;;;;;;;6.60;2.95;;;18.50;99.90;;;;;;5095401;28;20118;-74
2023/07/01 05:26:53;;;;;;;5.22;2.97;;;18.50;99.90;;;;;;5095883;28;20028;-73
2023/07/01 05:29:20;;;;;;;5.93;2.75;;;18.60;99.90;;;;;;5095603;28;20032;-73
2023/07/01 05:31:48;;;;;;;4.93;2.70;;;18.60;99.90;;;;;;5095946;28;20077;-73
2023/07/01 05:34:14;;;;;;;5.82;2.53;;;18.60;99.90;;;;;;5095430;28;20028;-73
2023/07/01 05:36:39;;;;;;;7.00;2.92;;;18.60;99.90;;;;;;5095399;28;20115;-73
2023/07/01 05:39:05;;;;;;;4.82;3.00;;;18.70;99.90;;;;;;5095573;28;20443;-73
2023/07/01 05:41:31;;;;;;;3.40;2.63;;;18.70;99.90;;;;;;5095395;28;20039;-73
2023/07/01 05:43:57;;;;;;;4.57;2.75;;;18.70;99.90;;;;;;5095448;28;20039;-73
2023/07/01 05:46:22;;;;;;;3.42;2.95;;;18.80;99.90;;;;;;5094605;28;20462;-74
2023/07/01 05:48:48;;;;;;;6.10;2.80;;;18.80;99.90;;;;;;5095311;28;20418;-70
2023/07/01 05:51:14;;;;;;;5.40;2.80;;;18.80;99.90;;;;;;5094635;28;20432;-71
2023/07/01 05:53:39;;;;;;;5.57;2.65;;;18.80;99.90;;;;;;5094858;28;20039;-73
2023/07/01 05:56:05;;;;;;;7.35;3.05;;;18.90;89.10;;;;;;5095013;28;20017;-74
2023/07/01 05:58:30;;;;;;;6.93;3.08;;;18.90;99.90;;;;;;5094401;28;20023;-73
2023/07/01 06:00:56;;;;;;;4.60;2.97;;;19.00;99.90;;;;;;5094987;28;20077;-73
2023/07/01 06:03:21;;;;;;;8.32;2.90;;;18.90;25.60;;;;;;5094862;28;20043;-73
2023/07/01 06:05:47;;;;;;;8.90;3.10;;;19.00;96.90;;;;;;5094734;28;20043;-71
2023/07/01 06:08:12;;;;;;;8.70;3.13;;;19.10;99.90;;;;;;5094884;28;20495;-73
2023/07/01 06:10:38;;;;;;;6.30;3.60;;;19.00;99.90;;;;;;5094237;28;20139;-73
2023/07/01 06:13:03;;;;;;;8.85;3.40;;;19.00;99.90;;;;;;5094713;28;20111;-73
2023/07/01 06:15:29;;;;;;;5.60;2.97;;;19.20;90.60;;;;;;5093953;28;20050;-73
2023/07/01 06:17:54;;;;;;;5.35;3.30;;;19.30;97.60;;;;;;5094282;28;20020;-76
2023/07/01 06:20:20;;;;;;;6.70;3.10;;;19.30;99.90;;;;;;5094871;28;20032;-73
2023/07/01 06:22:45;;;;;;;6.20;3.30;;;19.40;99.90;;;;;;5094915;28;20351;-73
2023/07/01 06:25:11;;;;;;;6.22;3.25;;;19.50;43.00;;;;;;5094411;28;20036;-73
2023/07/01 06:27:37;;;;;;;5.80;2.88;;;19.70;87.90;;;;;;5094000;28;20441;-72
2023/07/01 06:30:03;;;;;;;5.63;3.17;;;19.80;1.00;;;;;;5094261;28;20123;-73
2023/07/01 06:32:29;;;;;;;6.32;3.28;;;20.00;1.00;;;;;;5094277;28;20496;-73
2023/07/01 06:34:55;;;;;;;6.45;3.40;;;20.00;64.30;;;;;;5094431;28;20024;-73
2023/07/01 06:37:21;;;;;;;6.57;3.53;;;20.20;99.90;;;;;;5094281;28;20062;-73
2023/07/01 06:39:46;;;;;;;8.40;3.55;;;20.50;99.90;;;;;;5094279;28;20055;-73
2023/07/01 06:42:12;;;;;;;5.55;3.28;;;20.50;99.90;;;;;;5093753;28;20023;-73
2023/07/01 06:44:38;;;;;;;8.82;3.47;;;20.80;99.90;;;;;;5093816;28;20035;-73
2023/07/01 06:47:04;;;;;;;8.82;3.60;;;20.80;99.90;;;;;;5094250;28;20115;-74
2023/07/01 06:49:29;;;;;;;9.45;3.65;;;20.60;99.90;;;;;;5094055;28;20497;-73
2023/07/01 06:51:55;;;;;;;3.88;3.22;;;20.60;99.90;;;;;;5094233;28;20081;-73
2023/07/01 06:54:21;;;;;;;11.07;3.50;;;20.40;99.90;;;;;;5094229;28;20026;-73
2023/07/01 06:56:46;;;;;;;5.35;3.08;;;20.20;99.90;;;;;;5093972;28;20116;-73
2023/07/01 06:59:12;;;;;;;6.50;3.63;;;20.20;99.90;;;;;;5093630;28;20020;-73
2023/07/01 07:01:37;;;;;;;6.63;3.10;;;20.10;1.00;;;;;;5093792;28;20043;-73
2023/07/01 07:04:03;;;;;;;5.50;3.28;;;20.00;1.00;;;;;;5093939;28;20098;-73
2023/07/01 07:06:29;;;;;;;6.55;3.20;;;20.00;1.00;;;;;;5093926;28;20478;-73
2023/07/01 07:08:54;;;;;;;8.00;3.38;;;19.90;1.00;;;;;;5093755;28;20045;-73
2023/07/01 07:11:20;;;;;;;13.85;3.35;;;19.90;1.00;;;;;;5093669;28;20081;-74
2023/07/01 07:13:45;;;;;;;7.72;3.40;;;19.80;1.00;;;;;;5094040;28;20028;-73
2023/07/01 07:16:11;;;;;;;14.00;3.30;;;19.80;1.00;;;;;;5093287;28;20176;-74
2023/07/01 07:18:36;;;;;;;8.65;3.72;;;19.70;1.00;;;;;;5094031;28;20031;-73
2023/07/01 07:21:02;;;;;;;11.27;3.80;;;19.60;99.90;;;;;;5093657;28;20047;-74
2023/07/01 07:23:27;;;;;;;8.45;3.63;;;19.40;99.90;;;;;;5094003;28;20068;-74
2023/07/01 07:25:53;;;;;;;10.88;3.78;;;19.10;1.00;;;;;;5094708;28;20027;-74
2023/07/01 07:28:18;;;;;;;7.85;3.78;;;18.90;99.90;;;;;;5097746;28;20045;-71
2023/07/01 07:30:44;;;;;;;8.00;3.67;;;18.80;99.90;;;;;;5097711;28;20024;-73
2023/07/01 07:33:10;;;;;;;7.90;3.92;;;18.70;1.00;;;;;;5097760;28;20091;-74
2023/07/01 07:35:35;;;;;;;8.50;4.03;;;18.50;46.20;;;;;;5097545;28;20440;-72
2023/07/01 07:38:01;;;;;;;8.00;3.83;;;18.30;99.90;;;;;;5097476;28;20103;-72
2023/07/01 07:40:26;;;;;;;8.10;4.32;;;18.10;1.00;;;;;;5097545;28;20024;-74
2023/07/01 07:42:53;;;;;;;6.85;4.13;;;18.00;1.00;;;;;;5097148;28;20032;-74
2023/07/01 07:45:20;;;;;;;6.57;3.78;;;17.70;1.00;;;;;;5097321;28;20016;-73
2023/07/01 07:47:46;;;;;;;8.77;4.68;;;17.60;1.00;;;;;;5097713;28;20036;-73
2023/07/01 07:50:11;;;;;;;9.77;4.38;;;17.50;1.00;;;;;;5097406;28;20032;-73
2023/07/01 07:52:37;;;;;;;7.05;4.80;;;17.40;1.00;;;;;;5097460;28;20067;-73
2023/07/01 07:55:03;;;;;;;5.95;4.53;;;17.20;1.00;;;;;;5097651;28;20028;-73
2023/07/01 07:57:28;;;;;;;10.75;4.78;;;17.20;9.40;;;;;;5097406;28;20370;-73
2023/07/01 07:59:54;;;;;;;8.50;4.82;;;17.00;1.00;;;;;;5097556;28;20035;-74
2023/07/01 08:02:20;;;;;;;8.55;4.75;;;17.10;10.40;;;;;;5097166;28;20028;-74
2023/07/01 08:04:45;;;;;;;6.40;4.55;;;17.10;1.00;;;;;;5097332;28;20028;-73
2023/07/01 08:07:11;;;;;;;6.95;4.65;;;17.10;1.00;;;;;;5097281;28;20104;-73
2023/07/01 08:09:37;;;;;;;9.55;4.63;;;17.20;11.60;;;;;;5097129;28;20129;-73
2023/07/01 08:12:03;;;;;;;8.00;3.90;;;17.20;1.00;;;;;;5097355;28;20473;-74
2023/07/01 08:14:30;;;;;;;7.47;4.50;;;17.30;1.00;;;;;;5097332;28;20547;-73
2023/07/01 08:16:58;;;;;;;6.40;4.43;;;17.40;1.00;;;;;;5096743;28;20020;-73
2023/07/01 08:19:23;;;;;;;10.63;4.35;;;17.40;1.00;;;;;;5097188;28;20375;-74
2023/07/01 08:21:49;;;;;;;9.13;4.13;;;17.40;1.00;;;;;;5097165;28;20085;-73
2023/07/01 08:24:15;;;;;;;5.45;4.03;;;17.50;1.00;;;;;;5097204;28;20085;-72
2023/07/01 08:26:41;;;;;;;12.38;4.75;;;17.50;1.00;;;;;;5096977;28;20028;-72
2023/07/01 08:29:08;;;;;;;7.25;4.40;;;17.60;1.00;;;;;;5096800;28;20090;-72
2023/07/01 08:31:34;;;;;;;10.70;4.93;;;17.70;1.00;;;;;;5097197;28;20026;-71
2023/07/01 08:33:59;;;;;;;10.60;4.72;;;17.80;1.00;;;;;;5096412;28;20090;-71
2023/07/01 08:36:25;;;;;;;4.85;4.00;;;17.80;1.00;;;;;;5096978;28;20023;-72
2023/07/01 08:38:51;;;;;;;8.70;4.35;;;17.80;1.00;;;;;;5095743;28;20016;-73
2023/07/01 08:41:18;;;;;;;8.18;4.22;;;17.90;1.00;;;;;;5096545;28;20516;-72
2023/07/01 08:43:47;;;;;;;4.88;3.80;;;17.90;1.00;;;;;;5096937;28;20036;-72
2023/07/01 08:46:15;;;;;;;8.82;4.30;;;17.90;99.90;;;;;;5096718;28;20043;-71
2023/07/01 08:48:43;;;;;;;8.00;4.25;;;18.00;1.00;;;;;;5096414;28;20643;-74
2023/07/01 08:51:18;;;;;;;6.38;4.10;;;18.10;1.00;;;;;;5096702;28;20115;-73
2023/07/01 08:53:45;;;;;;;9.82;4.32;;;18.20;1.00;;;;;;5096597;28;20512;-73
2023/07/01 08:56:13;;;;;;;5.75;4.50;;;18.30;1.00;;;;;;5096430;28;20385;-73
2023/07/01 08:58:40;;;;;;;9.80;4.28;;;18.40;99.90;;;;;;5096298;28;20423;-74
2023/07/01 09:01:06;;;;;;;7.60;4.70;;;18.20;99.90;;;;;;5096335;28;20058;-72
2023/07/01 09:03:35;;;;;;;5.05;3.80;;;18.30;99.90;;;;;;5096342;28;20034;-73
2023/07/01 09:06:01;;;;;;;6.88;4.07;;;18.40;99.90;;;;;;5096475;28;20028;-73
2023/07/01 09:08:27;;;;;;;6.15;3.88;;;18.40;99.90;;;;;;5095862;28;20020;-73
2023/07/01 09:10:53;;;;;;;10.45;3.85;;;18.40;99.90;;;;;;5095850;28;20067;-73
2023/07/01 09:13:19;;;;;;;5.28;3.53;;;18.50;99.90;;;;;;5095842;28;20024;-73
2023/07/01 09:15:47;;;;;;;5.28;3.40;;;18.40;99.90;;;;;;5096182;28;20132;-73
2023/07/01 09:18:29;;;;;;;7.88;3.67;;;18.40;99.90;;;;;;5096522;28;20024;-73
2023/07/01 09:20:56;;;;;;;6.10;3.28;;;18.40;99.90;;;;;;5097158;28;20498;-73
2023/07/01 09:23:29;;;;;;;4.30;3.20;;;18.50;99.90;;;;;;5097005;28;20032;-72
2023/07/01 09:26:14;;;;;;;5.75;3.10;;;18.70;99.90;;;;;;5098596;28;20432;-72
2023/07/01 09:28:45;;;;;;;9.68;3.53;;;18.80;99.90;;;;;;5097995;28;20036;-72
2023/07/01 09:31:14;;;;;;;9.55;3.15;;;18.90;99.90;;;;;;5097492;28;20478;-72
2023/07/01 09:33:40;;;;;;;4.75;3.20;;;18.90;99.90;;;;;;5095531;28;20032;-74
2023/07/01 09:36:07;;;;;;;5.97;3.22;;;18.80;99.90;;;;;;5095648;28;20381;-74
2023/07/01 09:38:48;;;;;;;5.35;3.22;;;18.70;99.90;;;;;;5095725;28;20474;-74
2023/07/01 09:41:17;;;;;;;4.75;2.60;;;18.50;99.90;;;;;;5095385;28;20028;-73
2023/07/01 09:43:42;;;;;;;3.40;3.10;;;18.50;1.00;;;;;;5095577;28;20553;-73
2023/07/01 09:46:08;;;;;;;5.50;2.85;;;18.50;1.00;;;;;;5095259;28;20124;-74
2023/07/01 09:48:34;;;;;;;5.75;2.50;;;18.60;1.00;;;;;;5094421;28;20032;-73
2023/07/01 09:51:02;;;;;;;5.28;3.00;;;18.60;1.00;;;;;;5094255;28;20028;-73
2023/07/01 09:53:31;;;;;;;4.25;3.00;;;18.70;1.00;;;;;;5094926;28;20028;-74
2023/07/01 09:55:57;;;;;;;3.35;2.30;;;18.70;1.00;;;;;;5095091;28;20383;-74
2023/07/01 09:58:22;;;;;;;3.30;2.60;;;18.90;1.00;;;;;;5095212;28;20031;-74
2023/07/01 10:00:48;;;;;;;3.53;2.55;;;18.80;1.00;;;;;;5094901;28;20028;-72
2023/07/01 10:03:15;;;;;;;3.67;2.58;;;18.90;99.90;;;;;;5094638;28;20469;-73
2023/07/01 10:05:43;;;;;;;4.63;2.60;;;18.90;1.00;;;;;;5094778;28;20020;-72
2023/07/01 10:08:08;;;;;;;4.30;2.80;;;18.90;1.00;;;;;;5095260;28;20028;-73
2023/07/01 10:10:34;;;;;;;3.88;2.58;;;18.70;1.00;;;;;;5095524;28;20051;-72
2023/07/01 10:13:02;;;;;;;3.10;2.80;;;18.70;1.00;;;;;;5098994;28;20416;-77
2023/07/01 10:15:32;;;;;;;3.70;2.97;;;18.60;1.00;;;;;;5101972;28;20066;-77
2023/07/01 10:17:58;;;;;;;3.25;2.95;;;18.60;1.00;;;;;;5098600;28;20043;-75
2023/07/01 10:23:04;;;;;;;4.80;2.78;;;18.70;1.00;;;;;;5118807;22;20825;-70
2023/07/01 10:25:38;;;;;;;5.43;2.65;;;18.70;1.00;;;;;;5111247;28;20085;-70
2023/07/01 10:28:09;;;;;;;4.63;2.50;;;18.80;1.00;;;;;;5111067;28;20024;-69
2023/07/01 10:33:35;;;;;;;4.38;2.50;;;18.90;1.00;;;;;;5090740;28;20048;-70
2023/07/01 10:36:03;;;;;;;4.38;2.40;;;18.90;1.00;;;;;;5090700;28;20432;-70
2023/07/01 10:38:30;;;;;;;3.20;2.03;;;18.90;1.00;;;;;;5090864;28;20036;-71
2023/07/01 10:40:56;;;;;;;2.58;2.05;;;19.00;1.00;;;;;;5090822;28;20056;-70
2023/07/01 10:43:29;;;;;;;3.22;2.25;;;19.00;1.00;;;;;;5090630;28;20028;-70
2023/07/01 10:46:28;;;;;;;3.42;2.72;;;18.80;1.00;;;;;;5090357;28;20111;-70
2023/07/01 10:49:08;;;;;;;3.75;2.65;;;18.50;1.00;;;;;;5090565;28;20115;-70
2023/07/01 10:54:31;;;;;;;3.05;2.75;;;18.40;9.10;;;;;;5144205;27;20384;-70
2023/07/01 10:57:15;;;;;;;3.40;2.72;;;18.50;22.10;;;;;;5111260;28;20494;-70
2023/07/01 10:59:41;;;;;;;3.13;2.80;;;18.30;21.30;;;;;;5111229;28;20090;-70
2023/07/01 11:02:09;;;;;;;2.97;2.63;;;18.50;12.40;;;;;;5111087;28;20035;-70
2023/07/01 11:04:57;;;;;;;3.72;2.60;;;18.60;1.00;;;;;;5110617;28;20030;-70
2023/07/01 11:07:24;;;;;;;4.00;2.40;;;18.60;7.60;;;;;;5110424;28;20027;-70
2023/07/01 11:09:51;;;;;;;3.33;2.53;;;18.60;1.00;;;;;;5111095;28;20039;-70
2023/07/01 11:12:17;;;;;;;3.13;2.88;;;18.50;1.00;;;;;;5111023;28;20028;-70
2023/07/01 11:14:43;;;;;;;2.90;2.70;;;18.40;3.20;;;;;;5110640;28;20077;-70
2023/07/01 11:17:11;;;;;;;3.28;2.88;;;18.40;1.00;;;;;;5110729;28;20028;-70
2023/07/01 11:19:37;;;;;;;2.80;2.60;;;18.50;2.80;;;;;;5110832;28;20431;-70
2023/07/01 11:22:03;;;;;;;2.83;2.60;;;18.50;1.00;;;;;;5110738;28;20024;-70
2023/07/01 11:24:29;;;;;;;3.35;2.60;;;18.50;1.00;;;;;;5110785;28;20111;-70
2023/07/01 11:27:07;;;;;;;2.63;2.42;;;18.70;1.00;;;;;;5110716;28;20066;-70
2023/07/01 11:29:32;;;;;;;3.10;2.35;;;18.70;1.00;;;;;;5110681;28;20030;-70
2023/07/01 11:32:01;;;;;;;2.72;2.40;;;18.90;1.00;;;;;;5110583;28;20486;-70
2023/07/01 11:34:28;;;;;;;2.40;2.20;;;18.90;1.00;;;;;;5110288;28;20024;-70
2023/07/01 11:36:55;;;;;;;3.35;2.70;;;18.80;1.00;;;;;;5110150;28;20030;-70
2023/07/01 11:39:21;;;;;;;2.95;2.45;;;19.00;1.00;;;;;;5110566;28;20050;-70
2023/07/01 11:41:55;;;;;;;1.63;1.52;;;19.00;1.00;;;;;;5110566;28;20022;-70
2023/07/01 11:44:25;;;;;;;2.88;2.00;;;19.00;1.00;;;;;;5110277;28;20044;-70
2023/07/01 11:46:52;;;;;;;2.03;1.92;;;19.00;1.00;;;;;;5110426;28;20081;-70
2023/07/01 11:49:22;;;;;;;2.28;2.10;;;19.00;1.00;;;;;;5110407;28;20059;-70
2023/07/01 11:51:51;;;;;;;3.33;2.47;;;19.00;1.00;;;;;;5110460;28;20155;-70
2023/07/01 11:54:20;;;;;;;2.42;2.22;;;18.90;1.00;;;;;;5109741;28;20068;-70
2023/07/01 11:56:46;;;;;;;4.22;2.42;;;18.80;1.00;;;;;;5110149;28;20047;-70
2023/07/01 11:59:33;;;;;;;2.92;2.55;;;18.70;3.40;;;;;;5110100;28;20063;-70
2023/07/01 12:01:59;;;;;;;2.60;2.40;;;18.80;1.00;;;;;;5110036;28;20024;-70
2023/07/01 12:04:25;;;;;;;3.55;2.35;;;18.80;3.90;;;;;;5104384;28;20385;-70
2023/07/01 12:07:06;;;;;;;2.58;2.35;;;19.00;27.20;;;;;;5096510;28;20036;-70
2023/07/01 12:09:32;;;;;;;2.47;2.38;;;19.10;7.50;;;;;;5096352;28;20385;-69
2023/07/01 12:11:58;;;;;;;2.60;2.40;;;19.10;13.80;;;;;;5096330;28;20059;-69
2023/07/01 12:14:24;;;;;;;2.83;2.42;;;19.10;6.10;;;;;;5096120;28;20433;-69
2023/07/01 12:16:51;;;;;;;2.85;2.65;;;19.20;4.10;;;;;;5096249;28;20161;-69
2023/07/01 12:19:18;;;;;;;2.97;2.72;;;19.40;12.70;;;;;;5096161;28;20088;-70
2023/07/01 12:21:44;;;;;;;3.03;2.65;;;19.20;23.00;;;;;;5095630;28;20016;-69
2023/07/01 12:24:28;;;;;;;2.35;2.25;;;19.10;46.90;;;;;;5095892;28;20024;-69
2023/07/01 12:26:56;;;;;;;2.75;2.55;;;18.90;53.90;;;;;;5095986;28;20036;-70
2023/07/01 12:29:23;;;;;;;2.30;2.10;;;19.10;90.10;;;;;;5095902;28;20039;-69
2023/07/01 12:31:49;;;;;;;2.35;1.90;;;19.00;96.30;;;;;;5095942;28;20031;-70
2023/07/01 12:34:15;;;;;;;1.98;1.88;;;19.00;90.10;;;;;;5095468;28;20081;-70
2023/07/01 12:36:44;;;;;;;2.30;2.10;;;19.00;99.80;;;;;;5095468;28;20030;-69
2023/07/01 12:39:10;;;;;;;2.60;1.90;;;18.90;99.90;;;;;;5095769;28;20029;-69
2023/07/01 12:41:36;;;;;;;4.80;1.90;;;18.80;94.20;;;;;;5095800;28;20027;-69
2023/07/01 12:44:04;;;;;;;2.65;1.42;;;18.90;96.60;;;;;;5095737;28;20024;-69
2023/07/01 12:46:30;;;;;;;2.63;1.70;;;19.10;88.50;;;;;;5095679;28;20116;-69
2023/07/01 12:48:56;;;;;;;2.20;1.50;;;19.10;71.60;;;;;;5095667;28;20024;-69
2023/07/01 12:51:21;;;;;;;1.30;1.30;;;19.10;63.00;;;;;;5095395;28;20035;-69
2023/07/01 12:53:47;;;;;;;1.50;1.40;;;18.90;79.60;;;;;;5094844;28;20056;-70
2023/07/01 12:56:13;;;;;;;3.75;1.90;;;18.70;99.90;;;;;;5095471;28;20030;-70
2023/07/01 12:58:40;;;;;;;1.77;1.67;;;18.70;99.90;;;;;;5095439;28;20032;-70